createdAt,value
2022-09-24T00:01:33.436Z,9.57
2022-09-24T00:04:03.575Z,9.54
2022-09-24T00:06:37.060Z,9.54
2022-09-24T00:09:06.540Z,9.53
2022-09-24T00:11:34.395Z,9.51
2022-09-24T00:14:02.516Z,9.51
2022-09-24T00:16:34.025Z,9.51
2022-09-24T00:19:03.138Z,9.51
2022-09-24T00:21:32.453Z,9.51
2022-09-24T00:24:02.359Z,9.52
2022-09-24T00:26:48.640Z,9.50
2022-09-24T00:29:19.963Z,9.49
2022-09-24T00:31:47.871Z,9.48
2022-09-24T00:34:16.069Z,9.47
2022-09-24T00:36:46.849Z,9.47
2022-09-24T00:39:15.775Z,9.46
2022-09-24T00:41:49.039Z,9.48
2022-09-24T00:44:54.074Z,9.48
2022-09-24T00:47:30.659Z,9.51
2022-09-24T00:50:06.350Z,9.52
2022-09-24T00:52:35.214Z,9.49
2022-09-24T00:55:03.114Z,9.49
2022-09-24T00:57:32.860Z,9.48
2022-09-24T01:00:00.843Z,9.45
2022-09-24T01:02:28.716Z,9.44
2022-09-24T01:04:56.949Z,9.43
2022-09-24T01:07:25.495Z,9.44
2022-09-24T01:09:53.814Z,9.43
2022-09-24T01:12:33.707Z,9.42
2022-09-24T01:15:16.536Z,9.42
2022-09-24T01:17:53.396Z,9.42
2022-09-24T01:21:06.098Z,9.43
2022-09-24T01:23:57.411Z,9.41
2022-09-24T01:26:49.188Z,9.41
2022-09-24T01:29:32.206Z,9.42
2022-09-24T01:32:05.966Z,9.44
2022-09-24T01:34:41.281Z,9.46
2022-09-24T01:37:09.799Z,9.45
2022-09-24T01:39:39.308Z,9.48
2022-09-24T01:42:09.178Z,9.48
2022-09-24T01:44:44.448Z,9.49
2022-09-24T01:47:19.563Z,9.50
2022-09-24T01:49:47.746Z,9.55
2022-09-24T01:52:21.217Z,9.58
2022-09-24T01:54:52.369Z,9.63
2022-09-24T01:57:25.009Z,9.64
2022-09-24T02:00:00.767Z,9.64
2022-09-24T02:02:37.311Z,9.64
2022-09-24T02:05:09.770Z,9.63
2022-09-24T02:07:43.591Z,9.65
2022-09-24T02:10:16.591Z,9.64
2022-09-24T02:12:46.992Z,9.68
2022-09-24T02:15:17.963Z,9.65
2022-09-24T02:17:49.538Z,9.69
2022-09-24T02:20:21.763Z,9.71
2022-09-24T02:22:52.707Z,9.73
2022-09-24T02:25:24.651Z,9.71
2022-09-24T02:27:52.664Z,9.73
2022-09-24T02:30:21.936Z,9.75
2022-09-24T02:32:51.761Z,9.76
2022-09-24T02:35:18.672Z,9.77
2022-09-24T02:37:48.052Z,9.80
2022-09-24T02:40:16.633Z,9.81
2022-09-24T02:42:44.714Z,9.84
2022-09-24T02:45:14.221Z,9.85
2022-09-24T02:47:43.395Z,9.85
2022-09-24T02:50:11.222Z,9.86
2022-09-24T02:52:39.036Z,9.87
2022-09-24T02:55:07.240Z,9.89
2022-09-24T02:57:35.386Z,9.91
2022-09-24T03:00:03.701Z,9.93
2022-09-24T03:02:31.677Z,9.94
2022-09-24T03:05:00.916Z,9.96
2022-09-24T03:07:28.804Z,9.95
2022-09-24T03:09:56.607Z,9.98
2022-09-24T03:12:24.961Z,9.99
2022-09-24T03:14:52.831Z,10.01
2022-09-24T03:17:20.627Z,10.03
2022-09-24T03:19:48.404Z,10.04
2022-09-24T03:22:17.591Z,10.07
2022-09-24T03:24:45.955Z,10.09
2022-09-24T03:27:13.762Z,10.10
2022-09-24T03:29:58.851Z,10.11
2022-09-24T03:32:27.004Z,10.10
2022-09-24T03:34:54.795Z,10.11
2022-09-24T03:37:23.996Z,10.12
2022-09-24T03:39:51.817Z,10.11
2022-09-24T03:42:19.646Z,10.13
2022-09-24T03:44:47.427Z,10.15
2022-09-24T03:47:18.054Z,10.17
2022-09-24T03:49:45.847Z,10.19
2022-09-24T03:52:14.052Z,10.20
2022-09-24T03:54:43.268Z,10.20
2022-09-24T03:57:14.827Z,10.22
2022-09-24T03:59:43.099Z,10.23
2022-09-24T04:02:11.426Z,10.23
2022-09-24T04:04:39.646Z,10.24
2022-09-24T04:07:07.454Z,10.26
2022-09-24T04:09:35.276Z,10.25
2022-09-24T04:12:06.390Z,10.26
2022-09-24T04:14:34.219Z,10.28
2022-09-24T04:17:02.005Z,10.29
2022-09-24T04:19:32.007Z,10.28
2022-09-24T04:21:59.887Z,10.28
2022-09-24T04:24:27.687Z,10.29
2022-09-24T04:26:55.493Z,10.29
2022-09-24T04:29:24.665Z,10.28
2022-09-24T04:31:55.376Z,10.28
2022-09-24T04:34:26.164Z,10.27
2022-09-24T04:36:53.946Z,10.28
2022-09-24T04:39:26.653Z,10.29
2022-09-24T04:41:54.516Z,10.31
2022-09-24T04:44:22.631Z,10.31
2022-09-24T04:46:52.214Z,10.28
2022-09-24T04:49:20.068Z,10.31
2022-09-24T04:51:47.868Z,10.32
2022-09-24T04:54:16.675Z,10.32
2022-09-24T04:56:44.571Z,10.33
2022-09-24T04:59:12.358Z,10.35
2022-09-24T05:01:40.253Z,10.37
2022-09-24T05:04:09.786Z,10.36
2022-09-24T05:06:37.636Z,10.38
2022-09-24T05:09:09.055Z,10.42
2022-09-24T05:11:40.147Z,10.43
2022-09-24T05:14:08.486Z,10.43
2022-09-24T05:16:36.298Z,10.43
2022-09-24T05:19:04.968Z,10.43
2022-09-24T05:21:34.246Z,10.43
2022-09-24T05:24:02.316Z,10.45
2022-09-24T05:26:47.646Z,10.47
2022-09-24T05:29:15.448Z,10.47
2022-09-24T05:31:43.329Z,10.50
2022-09-24T05:34:11.244Z,10.52
2022-09-24T05:36:40.424Z,10.53
2022-09-24T05:39:08.475Z,10.54
2022-09-24T05:41:36.291Z,10.57
2022-09-24T05:44:07.812Z,10.59
2022-09-24T05:46:35.670Z,10.59
2022-09-24T05:49:03.523Z,10.60
2022-09-24T05:51:31.330Z,10.63
2022-09-24T05:54:00.511Z,10.67
2022-09-24T05:56:28.337Z,10.68
2022-09-24T05:58:56.167Z,10.70
2022-09-24T06:01:24.752Z,10.70
2022-09-24T06:03:52.715Z,10.71
2022-09-24T06:06:20.520Z,10.71
2022-09-24T06:08:48.305Z,10.74
2022-09-24T06:11:17.783Z,10.78
2022-09-24T06:13:45.859Z,10.78
2022-09-24T06:16:13.713Z,10.80
2022-09-24T06:18:44.275Z,10.84
2022-09-24T06:21:12.803Z,10.80
2022-09-24T06:23:41.064Z,10.83
2022-09-24T06:26:12.023Z,10.85
2022-09-24T06:28:41.868Z,10.88
2022-09-24T06:31:11.935Z,10.92
2022-09-24T06:33:40.529Z,10.93
2022-09-24T06:36:08.865Z,10.96
2022-09-24T06:38:36.935Z,10.96
2022-09-24T06:41:06.569Z,10.98
2022-09-24T06:43:35.458Z,10.99
2022-09-24T06:46:05.044Z,11.01
2022-09-24T06:48:33.481Z,11.03
2022-09-24T06:51:01.319Z,11.07
2022-09-24T06:53:29.121Z,11.09
2022-09-24T06:55:59.664Z,11.14
2022-09-24T06:58:27.949Z,11.17
2022-09-24T07:00:58.840Z,11.24
2022-09-24T07:03:29.899Z,11.29
2022-09-24T07:06:01.992Z,11.34
2022-09-24T07:08:29.947Z,11.41
2022-09-24T07:10:57.800Z,11.46
2022-09-24T07:13:25.806Z,11.51
2022-09-24T07:15:54.212Z,11.55
2022-09-24T07:18:22.167Z,11.60
2022-09-24T07:20:55.183Z,11.65
2022-09-24T07:23:24.160Z,11.72
2022-09-24T07:25:57.822Z,11.79
2022-09-24T07:28:25.789Z,11.84
2022-09-24T07:31:00.924Z,11.90
2022-09-24T07:33:28.884Z,11.97
2022-09-24T07:35:58.047Z,12.01
2022-09-24T07:38:26.000Z,12.08
2022-09-24T07:40:59.248Z,12.12
2022-09-24T07:43:28.606Z,12.17
2022-09-24T07:45:58.178Z,12.22
2022-09-24T07:48:26.351Z,12.26
2022-09-24T07:50:58.642Z,12.33
2022-09-24T07:53:26.461Z,12.37
2022-09-24T07:55:56.357Z,12.41
2022-09-24T07:58:24.148Z,12.45
2022-09-24T08:00:52.059Z,12.47
2022-09-24T08:03:19.885Z,12.52
2022-09-24T08:05:47.824Z,12.55
2022-09-24T08:08:17.030Z,12.60
2022-09-24T08:10:45.087Z,12.65
2022-09-24T08:13:13.022Z,12.69
2022-09-24T08:15:41.296Z,12.73
2022-09-24T08:18:09.240Z,12.78
2022-09-24T08:20:38.798Z,12.82
2022-09-24T08:23:09.928Z,12.84
2022-09-24T08:25:39.140Z,12.92
2022-09-24T08:28:08.059Z,12.94
2022-09-24T08:30:36.804Z,12.97
2022-09-24T08:33:06.612Z,13.02
2022-09-24T08:35:35.299Z,13.05
2022-09-24T08:38:03.607Z,13.09
2022-09-24T08:40:35.394Z,13.14
2022-09-24T08:43:21.315Z,13.19
2022-09-24T08:46:11.646Z,13.22
2022-09-24T08:48:46.075Z,13.26
2022-09-24T08:51:18.960Z,13.30
2022-09-24T08:53:52.875Z,13.35
2022-09-24T08:56:26.623Z,13.37
2022-09-24T08:58:59.954Z,13.41
2022-09-24T09:01:38.150Z,13.43
2022-09-24T09:04:22.661Z,13.45
2022-09-24T09:07:02.663Z,13.51
2022-09-24T09:09:42.704Z,13.55
2022-09-24T09:12:18.038Z,13.58
2022-09-24T09:14:54.215Z,13.62
2022-09-24T09:17:33.188Z,13.66
2022-09-24T09:20:04.840Z,13.69
2022-09-24T09:22:39.334Z,13.71
2022-09-24T09:25:18.807Z,13.74
2022-09-24T09:27:47.926Z,13.78
2022-09-24T09:30:19.900Z,13.82
2022-09-24T09:33:17.825Z,13.85
2022-09-24T09:35:52.463Z,13.88
2022-09-24T09:38:26.343Z,13.95
2022-09-24T09:41:00.351Z,14.00
2022-09-24T09:43:29.049Z,14.05
2022-09-24T09:46:08.711Z,14.08
2022-09-24T09:48:45.524Z,14.09
2022-09-24T09:51:22.540Z,14.13
2022-09-24T09:53:58.177Z,14.17
2022-09-24T09:56:29.163Z,14.21
2022-09-24T09:59:06.984Z,14.23
2022-09-24T10:01:40.657Z,14.26
2022-09-24T10:04:27.377Z,14.31
2022-09-24T10:07:05.356Z,14.33
2022-09-24T10:09:33.799Z,14.38
2022-09-24T10:12:09.792Z,14.42
2022-09-24T10:14:37.594Z,14.46
2022-09-24T10:17:07.151Z,14.51
2022-09-24T10:19:39.086Z,14.55
2022-09-24T10:22:16.873Z,14.57
2022-09-24T10:24:45.344Z,14.62
2022-09-24T10:27:14.088Z,14.65
2022-09-24T10:29:59.991Z,14.66
2022-09-24T10:32:30.598Z,14.69
2022-09-24T10:35:00.474Z,14.72
2022-09-24T10:37:29.296Z,14.73
2022-09-24T10:40:01.638Z,14.77
2022-09-24T10:42:31.108Z,14.79
2022-09-24T10:45:02.196Z,14.84
2022-09-24T10:47:41.907Z,14.87
2022-09-24T10:50:27.522Z,14.89
2022-09-24T10:52:58.824Z,14.95
2022-09-24T10:55:39.198Z,14.99
2022-09-24T10:58:27.890Z,15.01
2022-09-24T11:01:08.152Z,15.01
2022-09-24T11:04:12.905Z,15.01
2022-09-24T11:06:52.299Z,15.05
2022-09-24T11:09:28.958Z,15.09
2022-09-24T11:12:05.843Z,15.16
2022-09-24T11:14:50.359Z,15.21
2022-09-24T11:17:32.321Z,15.22
2022-09-24T11:20:29.027Z,15.22
2022-09-24T11:23:08.663Z,15.26
2022-09-24T11:25:48.798Z,15.31
2022-09-24T11:28:36.286Z,15.36
2022-09-24T11:31:13.438Z,15.39
2022-09-24T11:34:04.006Z,15.37
2022-09-24T11:36:41.116Z,15.35
2022-09-24T11:39:29.779Z,15.44
2022-09-24T11:42:04.776Z,15.43
2022-09-24T11:45:16.284Z,15.46
2022-09-24T11:48:12.384Z,15.51
2022-09-24T11:50:52.122Z,15.50
2022-09-24T11:53:32.849Z,15.50
2022-09-24T11:56:12.294Z,15.53
2022-09-24T11:58:46.520Z,15.55
2022-09-24T12:01:17.224Z,15.60
2022-09-24T12:03:50.263Z,15.61
2022-09-24T12:06:21.629Z,15.63
2022-09-24T12:08:57.962Z,15.66
2022-09-24T12:11:35.396Z,15.68
2022-09-24T12:14:10.962Z,15.68
2022-09-24T12:16:42.276Z,15.71
2022-09-24T12:19:18.512Z,15.71
2022-09-24T12:21:48.881Z,15.72
2022-09-24T12:24:22.712Z,15.71
2022-09-24T12:26:52.283Z,15.71
2022-09-24T12:29:54.470Z,15.67
2022-09-24T12:32:47.023Z,15.70
2022-09-24T12:35:23.290Z,15.71
2022-09-24T12:37:56.232Z,15.73
2022-09-24T12:40:50.933Z,15.72
2022-09-24T12:43:26.217Z,15.73
2022-09-24T12:46:00.475Z,15.71
2022-09-24T12:48:30.402Z,15.70
2022-09-24T12:51:00.945Z,15.68
2022-09-24T12:53:35.472Z,15.65
2022-09-24T12:56:07.140Z,15.66
2022-09-24T12:58:40.316Z,15.66
2022-09-24T13:01:14.202Z,15.67
2022-09-24T13:03:47.136Z,15.67
2022-09-24T13:06:31.887Z,15.65
2022-09-24T13:09:00.126Z,15.67
2022-09-24T13:11:33.556Z,15.67
2022-09-24T13:14:19.237Z,15.65
2022-09-24T13:16:50.618Z,15.66
2022-09-24T13:19:27.543Z,15.65
2022-09-24T13:21:57.883Z,15.66
2022-09-24T13:24:29.184Z,15.64
2022-09-24T13:27:11.583Z,15.65
2022-09-24T13:29:41.448Z,15.67
2022-09-24T13:32:19.706Z,15.67
2022-09-24T13:34:50.494Z,15.68
2022-09-24T13:37:23.275Z,15.68
2022-09-24T13:39:57.016Z,15.68
2022-09-24T13:42:34.845Z,15.66
2022-09-24T13:45:09.522Z,15.66
2022-09-24T13:47:44.337Z,15.68
2022-09-24T13:50:17.759Z,15.65
2022-09-24T13:52:51.360Z,15.63
2022-09-24T13:55:24.174Z,15.63
2022-09-24T13:57:53.418Z,15.63
2022-09-24T14:00:24.464Z,15.63
2022-09-24T14:03:04.151Z,15.61
2022-09-24T14:05:35.939Z,15.60
2022-09-24T14:08:06.450Z,15.60
2022-09-24T14:10:36.090Z,15.52
2022-09-24T14:13:17.588Z,15.57
2022-09-24T14:15:56.278Z,15.57
2022-09-24T14:18:25.501Z,15.58
2022-09-24T14:20:58.724Z,15.56
2022-09-24T14:23:31.418Z,15.57
2022-09-24T14:26:00.585Z,15.55
2022-09-24T14:28:32.935Z,15.52
2022-09-24T14:31:02.127Z,15.51
2022-09-24T14:33:34.067Z,15.49
2022-09-24T14:36:03.598Z,15.46
2022-09-24T14:38:35.884Z,15.43
2022-09-24T14:41:08.898Z,15.43
2022-09-24T14:43:46.921Z,15.40
2022-09-24T14:46:20.021Z,15.36
2022-09-24T14:48:47.988Z,15.36
2022-09-24T14:51:26.950Z,15.33
2022-09-24T14:54:02.741Z,15.31
2022-09-24T14:56:33.124Z,15.29
2022-09-24T14:59:02.532Z,15.25
2022-09-24T15:01:34.763Z,15.25
2022-09-24T15:04:05.405Z,15.23
2022-09-24T15:06:35.396Z,15.22
2022-09-24T15:09:05.472Z,15.19
2022-09-24T15:11:35.865Z,15.17
2022-09-24T15:14:25.089Z,15.14
2022-09-24T15:16:53.618Z,15.12
2022-09-24T15:19:23.040Z,15.09
2022-09-24T15:21:52.698Z,15.05
2022-09-24T15:24:22.168Z,15.02
2022-09-24T15:27:00.960Z,15.00
2022-09-24T15:29:30.283Z,14.98
2022-09-24T15:31:59.125Z,14.94
2022-09-24T15:34:28.405Z,14.92
2022-09-24T15:36:59.369Z,14.87
2022-09-24T15:39:27.954Z,14.86
2022-09-24T15:41:55.993Z,14.82
2022-09-24T15:44:29.765Z,14.79
2022-09-24T15:47:00.582Z,14.75
2022-09-24T15:49:28.412Z,14.72
2022-09-24T15:52:15.241Z,14.69
2022-09-24T15:54:43.356Z,14.64
2022-09-24T15:57:13.333Z,14.61
2022-09-24T15:59:41.145Z,14.58
2022-09-24T16:02:18.515Z,14.56
2022-09-24T16:04:46.446Z,14.55
2022-09-24T16:07:14.294Z,14.53
2022-09-24T16:09:42.255Z,14.50
2022-09-24T16:12:12.250Z,14.44
2022-09-24T16:14:40.046Z,14.39
2022-09-24T16:17:07.944Z,14.36
2022-09-24T16:19:37.061Z,14.33
2022-09-24T16:22:04.969Z,14.31
2022-09-24T16:24:33.559Z,14.28
2022-09-24T16:27:01.913Z,14.27
2022-09-24T16:29:29.724Z,14.25
2022-09-24T16:31:57.630Z,14.21
2022-09-24T16:34:25.508Z,14.17
2022-09-24T16:36:54.746Z,14.14
2022-09-24T16:39:22.824Z,14.13
2022-09-24T16:41:50.996Z,14.08
2022-09-24T16:44:19.374Z,14.05
2022-09-24T16:46:49.095Z,14.01
2022-09-24T16:49:17.366Z,13.98
2022-09-24T16:51:45.448Z,13.95
2022-09-24T16:54:15.195Z,13.92
2022-09-24T16:56:43.079Z,13.88
2022-09-24T16:59:11.687Z,13.85
2022-09-24T17:01:42.574Z,13.83
2022-09-24T17:04:10.560Z,13.78
2022-09-24T17:06:38.456Z,13.75
2022-09-24T17:09:23.728Z,13.71
2022-09-24T17:11:53.794Z,13.66
2022-09-24T17:14:21.808Z,13.64
2022-09-24T17:16:49.762Z,13.62
2022-09-24T17:19:17.552Z,13.56
2022-09-24T17:21:50.075Z,13.51
2022-09-24T17:24:21.449Z,13.49
2022-09-24T17:26:50.084Z,13.47
2022-09-24T17:29:20.785Z,13.47
2022-09-24T17:31:48.764Z,13.47
2022-09-24T17:34:16.635Z,13.47
2022-09-24T17:36:44.459Z,13.47
2022-09-24T17:39:13.945Z,13.45
2022-09-24T17:41:42.211Z,13.42
2022-09-24T17:44:12.464Z,13.38
2022-09-24T17:46:41.823Z,13.35
2022-09-24T17:49:11.187Z,13.34
2022-09-24T17:51:39.321Z,13.32
2022-09-24T17:54:09.535Z,13.29
2022-09-24T17:56:39.323Z,13.26
2022-09-24T17:59:08.114Z,13.23
2022-09-24T18:01:37.754Z,13.22
2022-09-24T18:04:09.119Z,13.17
2022-09-24T18:06:39.494Z,13.15
2022-09-24T18:09:08.288Z,13.11
2022-09-24T18:11:40.610Z,13.12
2022-09-24T18:14:13.635Z,13.10
2022-09-24T18:16:42.270Z,13.08
2022-09-24T18:19:12.997Z,13.06
2022-09-24T18:21:40.816Z,13.06
2022-09-24T18:24:10.223Z,13.04
2022-09-24T18:26:40.298Z,13.02
2022-09-24T18:29:12.839Z,13.03
2022-09-24T18:31:41.343Z,13.00
2022-09-24T18:34:13.276Z,13.01
2022-09-24T18:36:42.682Z,12.99
2022-09-24T18:39:13.455Z,12.99
2022-09-24T18:41:42.630Z,12.99
2022-09-24T18:44:11.137Z,12.99
2022-09-24T18:46:39.390Z,12.95
2022-09-24T18:49:08.048Z,12.92
2022-09-24T18:51:38.572Z,12.92
2022-09-24T18:54:07.328Z,12.87
2022-09-24T18:56:36.252Z,12.91
2022-09-24T18:59:09.707Z,12.90
2022-09-24T19:01:38.635Z,12.89
2022-09-24T19:04:08.098Z,12.87
2022-09-24T19:06:39.513Z,12.86
2022-09-24T19:09:08.373Z,12.86
2022-09-24T19:11:37.049Z,12.84
2022-09-24T19:14:04.935Z,12.81
2022-09-24T19:16:33.652Z,12.81
2022-09-24T19:19:02.826Z,12.80
2022-09-24T19:21:31.171Z,12.78
2022-09-24T19:24:01.051Z,12.75
2022-09-24T19:26:31.782Z,12.70
2022-09-24T19:28:59.883Z,12.66
2022-09-24T19:31:30.249Z,12.63
2022-09-24T19:33:58.814Z,12.54
2022-09-24T19:36:26.652Z,12.59
2022-09-24T19:38:54.782Z,12.61
2022-09-24T19:41:26.677Z,12.58
2022-09-24T19:43:57.119Z,12.56
2022-09-24T19:46:26.791Z,12.54
2022-09-24T19:48:55.871Z,12.51
2022-09-24T19:51:25.779Z,12.50
2022-09-24T19:53:55.203Z,12.49
2022-09-24T19:56:25.530Z,12.47
2022-09-24T19:58:54.692Z,12.47
2022-09-24T20:01:24.136Z,12.40
2022-09-24T20:03:52.392Z,12.41
2022-09-24T20:06:22.661Z,12.37
2022-09-24T20:08:50.759Z,12.36
2022-09-24T20:11:20.911Z,12.36
2022-09-24T20:13:51.037Z,12.35
2022-09-24T20:16:21.514Z,12.35
2022-09-24T20:18:49.581Z,12.26
2022-09-24T20:21:18.890Z,12.30
2022-09-24T20:23:48.004Z,12.31
2022-09-24T20:26:34.930Z,12.31
2022-09-24T20:29:06.964Z,12.30
2022-09-24T20:31:34.777Z,12.28
2022-09-24T20:34:02.905Z,12.26
2022-09-24T20:36:31.663Z,12.27
2022-09-24T20:38:59.972Z,12.24
2022-09-24T20:41:27.978Z,12.25
2022-09-24T20:43:56.560Z,12.25
2022-09-24T20:46:28.646Z,12.26
2022-09-24T20:49:00.007Z,12.25
2022-09-24T20:51:29.427Z,12.23
2022-09-24T20:53:59.174Z,12.23
2022-09-24T20:56:27.855Z,12.20
2022-09-24T20:58:55.659Z,12.19
2022-09-24T21:01:25.352Z,12.19
2022-09-24T21:03:53.744Z,12.18
2022-09-24T21:06:22.975Z,12.15
2022-09-24T21:08:51.538Z,12.15
2022-09-24T21:11:21.671Z,12.16
2022-09-24T21:13:51.451Z,12.15
2022-09-24T21:16:20.981Z,12.14
2022-09-24T21:18:52.240Z,12.11
2022-09-24T21:21:22.666Z,12.09
2022-09-24T21:23:50.967Z,12.02
2022-09-24T21:26:20.524Z,12.05
2022-09-24T21:28:50.144Z,12.05
2022-09-24T21:31:21.365Z,12.05
2022-09-24T21:33:55.294Z,12.07
2022-09-24T21:36:24.883Z,12.07
2022-09-24T21:38:55.431Z,12.08
2022-09-24T21:41:23.583Z,12.01
2022-09-24T21:43:58.409Z,12.03
2022-09-24T21:46:32.297Z,12.05
2022-09-24T21:49:02.693Z,12.05
2022-09-24T21:51:31.404Z,12.04
2022-09-24T21:54:01.776Z,12.03
2022-09-24T21:56:30.194Z,12.01
2022-09-24T21:58:59.299Z,12.00
2022-09-24T22:01:29.754Z,12.00
2022-09-24T22:03:58.551Z,11.92
2022-09-24T22:06:29.954Z,11.93
2022-09-24T22:08:59.432Z,11.93
2022-09-24T22:11:27.854Z,11.89
2022-09-24T22:14:01.198Z,11.83
2022-09-24T22:16:29.370Z,11.80
2022-09-24T22:18:57.251Z,11.79
2022-09-24T22:21:25.426Z,11.80
2022-09-24T22:23:55.551Z,11.80
2022-09-24T22:26:23.358Z,11.84
2022-09-24T22:28:51.166Z,11.87
2022-09-24T22:31:19.398Z,11.86
2022-09-24T22:34:04.831Z,11.86
2022-09-24T22:36:35.309Z,11.87
2022-09-24T22:39:05.467Z,11.79
2022-09-24T22:41:35.798Z,11.81
2022-09-24T22:44:03.927Z,11.84
2022-09-24T22:46:33.204Z,11.85
2022-09-24T22:49:01.472Z,11.84
2022-09-24T22:51:29.941Z,11.82
2022-09-24T22:53:58.843Z,11.80
2022-09-24T22:56:30.096Z,11.76
2022-09-24T22:58:59.876Z,11.72
2022-09-24T23:01:30.350Z,11.72
2022-09-24T23:03:58.832Z,11.73
2022-09-24T23:06:27.376Z,11.74
2022-09-24T23:08:56.394Z,11.73
2022-09-24T23:11:26.010Z,11.72
2022-09-24T23:13:57.236Z,11.69
2022-09-24T23:16:26.740Z,11.68
2022-09-24T23:18:56.274Z,11.65
2022-09-24T23:21:25.899Z,11.63
2022-09-24T23:23:55.147Z,11.58
2022-09-24T23:26:25.151Z,11.54
2022-09-24T23:28:56.068Z,11.54
2022-09-24T23:31:27.297Z,11.53
2022-09-24T23:33:57.417Z,11.55
2022-09-24T23:36:26.523Z,11.51
2022-09-24T23:38:54.831Z,11.48
2022-09-24T23:41:22.879Z,11.46
2022-09-24T23:43:50.918Z,11.46
2022-09-24T23:46:21.017Z,11.45
2022-09-24T23:48:48.904Z,11.46
2022-09-24T23:51:16.714Z,11.45
2022-09-24T23:53:44.551Z,11.46
2022-09-24T23:56:13.455Z,11.45
2022-09-24T23:58:42.309Z,11.46
